Date,TemperatureHighF,TemperatureAvgF,TemperatureLowF,DewpointHighF,DewpointAvgF,DewpointLowF,HumidityHigh,HumidityAvg,HumidityLow,PressureMaxIn,PressureMinIn,WindSpeedMaxMPH,WindSpeedAvgMPH,GustSpeedMaxMPH,PrecipitationSumIn
2012-1-1,55.0,44.2,32.9,44.9,29.4,17.2,75,57,41,29.97,29.38,27,11,27,0.00
2012-1-2,33.8,27.9,24.4,20.0,14.3,8.1,63,56,49,30.14,29.93,24,11,24,0.00
2012-1-3,34.9,26.1,15.1,15.4,12.4,8.6,76,57,38,30.20,29.84,14,5,14,0.00
2012-1-4,50.2,37.6,30.4,31.0,24.1,15.1,79,59,46,29.85,29.69,16,6,16,0.00
2012-1-5,60.8,44.2,26.2,37.5,31.0,22.4,85,63,40,29.81,29.57,18,6,18,0.00
2012-1-6,63.5,51.8,42.1,42.0,35.4,30.8,76,55,39,29.57,29.44,17,7,17,0.00
2012-1-7,54.9,42.7,34.0,34.6,30.1,27.8,79,62,41,29.90,29.54,11,4,11,0.00
2012-1-8,47.7,38.8,29.1,33.2,29.2,25.0,85,69,55,29.99,29.89,11,2,11,0.00
2012-1-9,52.7,38.8,28.4,31.9,27.6,24.0,85,66,40,29.92,29.77,11,2,11,0.00
2012-1-10,56.5,40.8,27.9,34.6,28.5,22.3,81,64,39,29.79,29.41,10,2,10,0.00
2012-1-11,45.3,42.9,38.3,40.9,38.6,31.0,85,84,61,29.42,29.15,10,3,10,0.22
2012-1-12,39.2,24.3,15.8,35.1,19.0,10.0,85,80,67,29.54,29.24,26,11,26,0.01
2012-1-13,22.5,17.4,7.9,15.2,10.9,3.1,84,75,68,29.84,29.54,22,7,22,0.00
2012-1-14,33.6,22.4,5.9,23.3,15.6,1.2,85,75,57,29.98,29.68,11,4,11,0.00
2012-1-15,40.3,30.6,19.6,30.6,23.7,15.9,85,75,62,30.09,29.77,24,8,24,0.00
2012-1-16,63.7,53.0,31.3,56.7,44.1,25.4,81,72,62,29.77,29.42,35,12,35,0.00
2012-1-17,63.7,43.0,25.2,57.3,36.1,16.3,85,76,67,30.00,29.28,28,12,28,0.55
2012-1-18,33.4,26.2,16.9,21.6,16.9,11.0,79,67,53,30.03,29.70,15,5,15,0.00
2012-1-19,40.5,30.3,17.4,27.7,21.3,8.7,73,69,56,29.82,29.59,17,7,17,0.00
2012-1-20,31.1,24.6,16.0,26.8,17.7,7.5,85,74,67,29.84,29.53,13,4,13,0.00
2012-1-21,28.2,25.7,23.2,23.7,21.6,18.5,85,84,80,29.87,29.63,0,0,0,0.00
2012-1-22,55.9,38.7,27.3,51.5,34.6,23.5,85,85,85,29.77,29.14,23,8,23,0.58
2012-1-23,53.6,42.5,30.6,49.2,35.8,26.4,85,77,67,29.74,29.15,30,8,30,0.00
2012-1-24,42.6,33.6,26.2,31.8,27.0,22.4,85,77,61,30.03,29.74,10,3,10,0.00
2012-1-25,34.9,32.1,29.1,30.9,28.0,24.8,85,84,82,30.01,29.61,10,2,10,0.38
2012-1-26,39.7,37.1,34.7,35.5,33.1,30.7,85,85,85,29.61,29.34,13,4,13,0.46
2012-1-27,44.8,38.6,35.6,35.1,32.6,30.6,85,79,63,29.71,29.42,14,4,14,0.01
2012-1-28,43.2,36.7,32.0,34.9,26.3,18.2,85,67,51,29.99,29.62,18,7,18,0.09
2012-1-29,47.7,37.8,28.9,29.9,24.0,20.7,80,58,43,29.95,29.85,21,7,21,0.00
2012-1-30,60.8,47.4,30.0,39.7,32.5,22.5,78,58,42,29.90,29.70,21,8,21,0.00
2012-1-31,62.2,56.7,50.9,53.2,43.4,32.3,81,62,47,29.74,29.62,25,11,25,0.00
2012-2-1,63.0,53.0,41.5,54.0,44.3,37.1,85,74,51,29.84,29.66,12,3,12,0.01
2012-2-2,60.8,44.6,31.1,43.2,35.2,27.2,85,72,43,30.03,29.83,7,2,7,0.00
2012-2-3,55.6,46.1,35.1,43.2,37.3,30.7,85,73,50,30.03,29.81,14,4,14,0.04
2012-2-4,46.8,45.2,42.6,42.5,41.0,38.5,85,85,85,29.83,29.67,19,5,19,0.43
2012-2-5,50.0,41.9,31.6,38.5,34.4,27.5,85,75,49,29.95,29.77,14,4,14,0.00
2012-2-6,45.0,34.8,27.5,38.5,29.7,23.5,85,82,69,29.96,29.84,11,2,11,0.00
2012-2-7,52.5,37.1,25.2,37.3,29.8,21.4,85,76,52,29.99,29.87,12,3,12,0.00
2012-2-8,37.4,34.1,32.2,30.9,27.8,23.5,85,77,66,30.08,29.98,12,4,14,0.01
2012-2-9,40.8,34.4,31.6,27.4,24.4,21.9,78,67,52,30.06,29.86,11,2,11,0.00
2012-2-10,38.8,33.3,23.4,34.8,28.1,15.2,85,81,70,29.89,29.63,22,7,22,0.07
2012-2-11,28.6,22.8,16.3,16.0,10.5,5.8,73,59,48,30.16,29.89,25,11,25,0.00
2012-2-12,36.5,25.3,17.6,17.6,12.1,7.7,78,58,39,30.19,29.97,14,5,14,0.00
2012-2-13,35.2,28.2,18.5,27.2,20.2,12.7,85,72,51,29.98,29.57,17,6,17,0.00
2012-2-14,41.0,35.2,31.3,35.4,30.6,27.4,85,83,75,29.75,29.52,10,3,10,0.05
2012-2-15,45.3,40.1,31.6,41.1,36.0,27.7,85,85,85,29.81,29.63,21,7,21,0.26
2012-2-16,52.2,43.7,32.0,43.0,37.9,28.1,85,80,64,29.91,29.62,17,5,17,0.05
2012-2-17,54.0,39.9,27.3,39.3,30.3,23.5,85,71,43,29.92,29.76,13,2,13,0.00
2012-2-18,48.2,39.5,33.4,33.0,29.6,24.9,85,68,53,29.85,29.75,14,5,14,0.02
2012-2-19,42.6,34.6,28.0,27.5,24.0,21.8,77,65,50,29.85,29.74,18,6,18,0.00
2012-2-20,47.5,36.3,21.9,32.7,26.6,18.2,85,69,50,29.95,29.53,23,8,23,0.00
2012-2-21,52.2,45.9,37.6,40.1,34.8,28.0,70,65,56,29.56,29.38,23,8,23,0.00
2012-2-22,62.1,48.7,34.2,39.0,33.8,25.1,79,58,40,29.49,29.12,19,4,19,0.00
2012-2-23,64.8,51.0,37.9,51.4,40.9,31.0,83,69,52,29.22,28.91,27,5,27,0.01
2012-2-24,44.8,38.7,30.7,32.1,27.3,21.6,76,64,53,29.79,29.36,28,9,28,0.00
2012-2-25,42.8,33.5,26.2,24.5,21.1,17.4,71,60,45,29.99,29.78,17,5,17,0.00
2012-2-26,59.9,43.6,25.2,31.0,25.7,17.7,74,53,33,29.98,29.74,24,8,24,0.00
2012-2-27,57.2,46.3,36.5,32.7,28.3,23.3,67,51,38,30.13,29.83,16,5,16,0.00
2012-2-28,61.5,47.2,32.4,52.3,32.9,21.8,79,58,49,30.10,29.42,24,8,24,0.01
2012-2-29,70.0,60.9,46.9,61.7,43.8,30.0,85,57,33,29.52,29.28,30,12,30,0.07
2012-3-1,63.3,49.5,36.0,38.7,33.9,28.0,73,57,36,29.60,29.30,15,4,15,0.00
2012-3-2,75.0,50.2,35.1,61.4,41.4,28.9,85,72,60,29.49,28.93,29,10,29,0.32
2012-3-3,48.4,37.2,28.4,32.6,27.6,21.2,83,69,50,29.60,29.47,22,6,22,0.00
2012-3-4,49.1,35.7,25.9,30.7,26.6,19.5,85,70,47,29.67,29.55,17,4,17,0.02
2012-3-5,45.5,36.1,25.9,29.9,25.5,20.6,84,66,46,30.12,29.67,14,4,14,0.00
2012-3-6,38.1,37.0,36.3,25.0,24.2,23.6,63,60,58,29.96,29.87,17,9,17,0.00
2012-3-7,69.6,65.9,57.0,52.8,47.6,37.2,61,53,43,29.83,29.65,27,13,27,0.00
2012-3-8,66.9,47.8,34.9,57.1,39.4,26.7,85,73,62,30.07,29.59,26,7,26,0.28
2012-3-9,53.1,41.5,30.7,31.5,26.0,22.6,76,57,34,30.19,30.05,17,5,17,0.00
2012-3-10,59.5,43.6,26.8,34.3,27.8,20.7,79,57,32,30.18,29.96,17,5,17,0.00
2012-3-11,66.2,53.1,39.2,49.9,37.7,26.6,85,57,43,29.97,29.70,24,9,24,0.01
2012-3-12,76.8,66.6,54.0,59.5,55.8,49.6,85,70,49,29.70,29.49,31,12,31,0.02
2012-3-13,82.6,68.0,54.5,58.3,53.1,48.7,85,62,41,29.77,29.61,15,4,17,0.00
2012-3-14,82.8,69.2,52.3,65.2,58.7,48.0,85,71,55,29.78,29.65,18,6,18,0.00
2012-3-15,75.0,67.3,63.1,64.0,59.6,56.3,85,76,67,29.80,29.68,17,5,17,0.91
2012-3-16,75.6,65.7,58.3,61.4,56.2,51.0,83,72,53,29.80,29.66,20,4,20,0.00
2012-3-17,82.2,66.5,57.6,67.0,58.6,53.1,85,77,55,29.77,29.65,18,4,18,0.24
2012-3-18,81.0,69.2,58.3,65.7,59.8,53.8,85,73,54,29.78,29.65,20,4,20,0.01
2012-3-19,84.2,70.5,61.2,64.5,58.0,42.5,85,67,44,29.72,29.55,25,8,25,0.00
2012-3-20,82.8,72.6,60.8,60.3,56.7,52.3,74,59,43,29.69,29.56,27,9,27,0.00
2012-3-21,82.8,73.2,63.3,61.5,57.2,53.6,73,59,39,29.73,29.60,27,10,27,0.00
2012-3-22,71.1,66.2,63.0,61.7,58.9,55.6,85,78,62,29.75,29.61,21,9,21,0.12
2012-3-23,64.4,58.8,52.5,59.8,53.5,46.7,85,83,71,29.66,29.42,28,3,28,0.64
2012-3-24,68.5,58.9,52.0,57.8,51.3,47.6,85,77,60,29.57,29.45,10,2,10,0.17
2012-3-25,71.6,62.0,54.5,59.0,54.5,50.1,85,77,59,29.72,29.56,13,3,13,0.00
2012-3-26,68.9,60.1,53.2,53.1,46.6,39.1,85,64,43,29.87,29.71,13,4,13,0.00
2012-3-27,76.3,61.4,47.1,55.5,45.7,36.7,69,58,44,29.85,29.61,20,8,20,0.00
2012-3-28,81.0,70.5,56.5,59.5,53.3,43.2,80,58,30,29.67,29.59,13,4,13,0.00
2012-3-29,71.8,63.0,54.7,52.5,47.0,40.2,80,57,43,29.70,29.51,14,3,14,0.00
2012-3-30,81.9,66.0,55.8,64.6,56.2,46.5,85,72,51,29.51,29.35,14,5,14,0.44
2012-3-31,69.3,58.8,47.8,56.8,51.2,43.6,85,76,62,29.59,29.46,11,3,12,0.00
2012-4-1,87.1,71.8,57.6,68.8,60.5,52.8,85,69,49,29.47,29.27,12,4,12,0.00
2012-4-2,85.5,73.9,61.5,70.0,63.8,57.0,85,72,55,29.48,29.28,15,3,15,0.00
2012-4-3,82.2,70.4,59.7,67.6,60.6,55.2,85,73,55,29.56,29.43,12,2,12,0.00
2012-4-4,73.0,65.4,62.1,64.8,59.1,52.5,85,80,70,29.48,29.36,11,3,11,0.25
2012-4-5,63.0,56.1,49.3,52.8,44.7,36.1,85,67,44,29.70,29.34,16,6,16,0.37
2012-4-6,60.8,50.0,39.7,42.1,37.3,32.6,79,63,47,29.88,29.70,12,3,12,0.00
2012-4-7,69.3,54.2,38.8,48.6,41.9,34.5,84,66,42,29.94,29.80,12,2,12,0.00
2012-4-8,68.5,58.3,46.8,48.9,41.7,35.4,78,57,34,30.01,29.83,13,4,13,0.00
2012-4-9,72.9,58.5,44.8,41.3,37.4,32.8,76,50,28,29.83,29.69,16,4,16,0.00
2012-4-10,60.4,52.1,43.5,39.4,30.8,26.1,66,46,32,29.84,29.70,14,4,14,0.00
2012-4-11,58.1,45.9,34.7,33.6,28.8,24.8,75,53,35,29.95,29.77,13,3,13,0.00
2012-4-12,63.0,48.2,32.7,40.3,34.8,28.0,83,63,41,29.97,29.79,12,2,12,0.00
2012-4-13,59.4,50.5,43.3,46.1,41.2,35.8,83,71,48,29.87,29.71,24,6,24,0.33
2012-4-14,78.3,62.4,50.5,69.3,55.2,45.4,85,78,62,29.76,29.50,14,4,14,0.60
2012-4-15,77.4,72.0,60.6,63.9,59.7,53.7,79,66,60,29.56,29.34,24,11,24,0.01
2012-4-16,65.8,58.5,50.2,57.0,49.6,45.0,85,73,57,29.90,29.39,22,6,22,0.01
2012-4-17,66.6,56.2,44.6,52.4,46.1,40.2,85,71,48,30.03,29.90,8,1,8,0.00
2012-4-18,73.4,58.4,43.3,52.3,46.3,39.2,85,67,45,29.92,29.69,11,2,11,0.00
2012-4-19,75.7,63.5,46.9,52.3,47.9,42.4,85,60,40,29.71,29.46,21,4,21,0.00
2012-4-20,65.1,54.4,46.0,52.7,45.8,40.3,84,73,55,29.64,29.39,12,5,12,0.20
2012-4-21,56.5,48.2,42.6,42.7,38.8,35.4,79,70,60,29.68,29.62,15,4,15,0.01
2012-4-22,59.7,50.4,44.2,44.4,37.4,28.9,79,63,42,29.73,29.55,20,5,20,0.00
2012-4-23,61.7,50.7,37.9,40.0,34.2,26.9,66,55,43,29.73,29.55,18,4,18,0.00
2012-4-24,69.1,56.6,44.4,51.7,44.6,36.0,77,65,52,29.55,29.31,12,3,12,0.01
2012-4-25,80.2,68.6,53.6,63.5,56.4,44.7,76,66,54,29.34,29.22,21,4,21,0.00
2012-4-26,78.6,68.7,55.2,64.6,55.5,38.2,85,64,49,29.73,29.25,17,5,17,0.18
2012-4-27,60.1,53.7,42.8,39.3,34.2,26.0,55,49,42,29.85,29.61,22,6,22,0.00
2012-4-28,77.5,65.9,56.5,66.9,54.2,38.5,80,67,51,29.68,29.52,17,5,17,0.04
2012-4-29,74.7,60.8,51.8,63.9,55.3,46.9,85,82,76,29.79,29.62,11,3,11,0.00
2012-4-30,79.0,68.3,60.1,67.0,61.2,54.1,85,78,66,29.67,29.56,17,3,17,0.21
2012-5-1,85.3,71.6,57.6,73.6,62.3,52.2,85,74,57,29.65,29.47,17,5,17,0.07
2012-5-2,89.6,79.2,68.0,68.8,65.3,60.5,79,64,49,29.63,29.51,21,6,21,0.00
2012-5-3,84.4,77.1,68.7,70.7,65.4,60.2,77,68,58,29.70,29.56,17,4,17,0.00
2012-5-4,81.1,72.3,67.1,73.1,66.3,61.8,85,81,74,29.67,29.48,12,4,12,0.00
2012-5-5,86.5,78.2,64.2,77.2,70.7,59.6,85,78,68,29.59,29.52,6,2,6,0.27
2012-5-6,89.4,79.8,70.3,75.6,69.9,64.0,85,73,58,29.60,29.47,11,3,11,0.00
2012-5-7,82.6,73.1,66.6,67.7,63.4,60.1,81,72,61,29.55,29.45,11,3,11,0.00
2012-5-8,73.0,65.8,59.2,60.1,53.7,48.8,85,67,46,29.62,29.53,11,2,11,0.00
2012-5-9,72.1,62.5,53.2,52.8,49.2,46.6,80,63,48,29.63,29.56,12,2,12,0.00
2012-5-10,73.2,61.7,51.1,51.8,46.9,43.8,83,61,39,29.70,29.59,8,2,8,0.00
2012-5-11,74.5,62.6,47.1,54.1,49.0,42.6,85,64,43,29.82,29.69,22,2,22,0.00
2012-5-12,74.7,64.4,55.4,55.9,53.3,50.7,85,69,50,29.88,29.78,7,1,7,0.00
2012-5-13,79.7,66.7,53.4,59.8,53.4,48.6,85,65,43,29.82,29.67,12,3,12,0.00
2012-5-14,79.3,67.5,55.8,58.6,53.4,47.3,74,62,47,29.75,29.64,9,2,9,0.00
2012-5-15,85.5,69.6,53.6,55.6,50.6,45.4,74,54,33,29.70,29.60,10,2,10,0.00
2012-5-16,79.9,69.8,58.3,58.4,49.8,34.6,76,53,32,29.71,29.60,14,4,14,0.00
2012-5-17,78.3,65.7,51.1,49.8,43.2,34.3,64,47,31,29.76,29.65,12,3,12,0.00
2012-5-18,86.0,70.7,51.6,62.4,55.2,45.1,79,60,43,29.72,29.58,11,2,11,0.00
2012-5-19,90.9,77.7,65.5,67.8,62.4,57.8,80,62,41,29.71,29.63,11,3,11,0.00
2012-5-20,90.7,73.5,63.7,69.1,62.8,57.9,84,71,49,29.75,29.62,18,3,18,0.14
2012-5-21,73.2,66.5,58.5,61.4,55.7,48.0,85,69,55,29.77,29.66,14,4,14,0.01
2012-5-22,76.8,64.2,51.4,50.9,47.5,44.4,77,58,36,29.73,29.54,14,3,14,0.00
2012-5-23,81.3,67.6,50.0,54.3,50.5,45.1,84,58,37,29.57,29.41,17,3,17,0.00
2012-5-24,88.9,75.3,58.3,66.7,59.0,50.5,77,59,43,29.47,29.31,23,6,23,0.00
2012-5-25,87.8,80.2,73.0,73.1,67.5,61.6,75,66,60,29.67,29.45,11,2,11,0.00
2012-5-26,91.9,80.4,68.2,73.6,67.8,62.5,82,67,53,29.74,29.62,13,3,13,0.00
2012-5-27,92.8,80.9,68.0,69.3,66.0,61.5,80,63,44,29.69,29.55,11,3,11,0.00
2012-5-28,93.7,82.4,71.1,71.0,66.7,62.8,77,61,46,29.59,29.44,14,3,14,0.00
2012-5-29,86.5,75.9,65.3,67.6,63.6,59.0,85,67,47,29.56,29.43,11,2,11,0.18
2012-5-30,81.1,69.2,61.3,62.2,57.3,48.5,84,68,45,29.65,29.50,9,2,9,0.09
2012-5-31,72.1,63.2,55.2,61.5,54.4,47.3,84,73,61,29.54,29.34,17,4,17,0.02
2012-6-1,66.4,57.1,51.3,50.4,47.6,44.4,84,72,52,29.57,29.43,13,4,13,0.00
2012-6-2,77.2,63.9,51.1,55.6,50.5,44.1,79,64,47,29.61,29.45,14,3,14,0.00
2012-6-3,86.9,72.0,54.7,61.9,57.3,49.4,84,63,42,29.57,29.44,8,2,8,0.00
2012-6-4,87.4,73.4,61.7,67.0,60.6,55.3,83,66,51,29.53,29.42,12,3,12,0.00
2012-6-5,79.9,69.9,57.4,57.0,53.0,49.0,74,57,43,29.61,29.50,15,4,15,0.00
2012-6-6,77.9,67.3,54.1,52.1,49.7,46.6,78,56,39,29.72,29.60,14,3,14,0.00
2012-6-7,83.7,69.4,52.9,56.6,51.2,47.1,80,57,34,29.77,29.68,8,2,12,0.00
2012-6-8,88.0,72.7,54.9,60.4,54.6,48.9,81,57,35,29.77,29.60,11,1,11,0.00
2012-6-9,90.3,75.6,57.2,63.7,58.6,51.3,81,59,41,29.65,29.51,14,2,14,0.00
2012-6-10,87.6,75.9,62.1,66.9,61.9,55.6,81,64,45,29.62,29.53,24,7,24,0.00
2012-6-11,85.1,72.7,68.0,72.9,66.3,62.8,85,81,64,29.63,29.47,23,3,23,0.50
2012-6-12,82.6,72.9,63.9,63.5,57.6,49.9,85,62,40,29.75,29.57,13,3,13,0.00
2012-6-13,80.8,66.6,57.4,57.8,51.9,48.2,76,62,36,29.77,29.67,5,1,7,0.00
2012-6-14,77.0,62.3,55.9,60.6,55.1,51.2,85,78,58,29.74,29.68,11,2,11,0.00
2012-6-15,91.2,82.9,61.0,68.3,64.1,55.3,81,55,43,29.73,29.62,14,4,14,0.00
2012-6-16,93.4,80.1,68.0,72.5,67.3,61.8,84,67,48,29.75,29.63,14,3,14,0.00
2012-6-17,89.8,80.3,71.4,72.8,68.0,63.8,78,67,56,29.67,29.50,14,3,14,0.00
2012-6-18,92.3,82.6,75.0,72.0,66.2,62.1,72,59,45,29.59,29.48,19,6,19,0.00
2012-6-19,93.9,82.0,69.8,70.8,65.4,60.8,76,59,43,29.69,29.58,17,4,17,0.00
2012-6-20,94.3,81.9,67.1,68.5,63.9,59.7,79,57,38,29.75,29.61,14,4,14,0.00
2012-6-21,96.6,80.7,70.3,69.0,65.3,60.5,76,61,39,29.67,29.57,14,3,14,0.00
2012-6-22,88.9,76.2,62.6,64.5,59.6,56.4,82,60,39,29.67,29.59,8,2,12,0.00
2012-6-23,88.7,74.6,58.6,63.5,56.9,52.3,81,58,33,29.68,29.58,6,2,9,0.00
2012-6-24,93.0,80.7,68.5,67.0,63.7,60.8,79,59,42,29.67,29.54,9,1,10,0.00
2012-6-25,90.1,79.9,68.7,68.6,60.8,46.3,76,55,34,29.60,29.52,11,4,13,0.00
2012-6-26,86.2,73.2,59.4,53.7,51.0,48.2,73,50,30,29.67,29.54,11,4,14,0.00
2012-6-27,96.4,77.6,55.2,57.1,52.8,47.7,78,48,23,29.67,29.52,8,3,15,0.00
2012-6-28,108.0,89.7,72.1,65.3,59.1,53.0,59,39,24,29.62,29.50,8,4,12,0.00
2012-6-29,104.2,88.5,71.6,68.5,62.7,57.8,63,45,27,29.57,29.43,7,2,10,0.00
2012-6-30,102.4,89.0,74.4,67.7,63.9,59.1,60,46,30,29.51,29.44,6,2,10,0.00
2012-7-1,104.2,86.6,70.7,69.3,64.0,59.0,72,50,30,29.61,29.49,8,2,14,0.00
2012-7-2,101.4,82.0,69.8,70.9,62.6,57.2,69,53,35,29.66,29.55,12,3,16,0.00
2012-7-3,99.5,80.5,68.9,68.5,64.8,58.9,78,61,36,29.64,29.52,12,2,17,0.28
2012-7-4,101.6,85.4,71.9,73.5,67.6,61.9,78,59,32,29.61,29.52,5,2,9,0.00
2012-7-5,105.4,87.8,71.2,73.2,67.4,63.5,78,55,30,29.62,29.54,8,2,12,0.00
2012-7-6,103.7,88.9,73.2,72.8,67.4,63.5,77,53,30,29.64,29.54,7,2,10,0.00
2012-7-7,105.1,89.0,75.8,73.5,68.5,65.4,74,53,33,29.63,29.51,8,1,14,0.00
2012-7-8,98.4,81.7,74.0,74.3,68.1,64.1,78,64,46,29.66,29.52,11,3,16,0.14
2012-7-9,86.4,78.2,70.5,67.4,65.0,62.2,78,64,49,29.67,29.58,8,2,11,0.00
2012-7-10,92.0,80.4,67.5,65.1,60.7,56.6,78,54,33,29.67,29.59,9,3,17,0.00
2012-7-11,93.3,80.6,67.3,63.6,59.0,54.2,63,49,33,29.70,29.61,8,3,12,0.00
2012-7-12,92.6,80.2,66.5,67.4,61.9,56.7,71,55,36,29.68,29.60,14,3,16,0.00
2012-7-13,87.1,78.3,66.5,67.0,63.7,59.1,78,61,48,29.71,29.62,9,3,11,0.00
2012-7-14,87.1,78.0,71.2,70.2,67.0,63.7,78,68,52,29.73,29.62,7,2,9,0.00
2012-7-15,91.9,81.1,68.9,72.6,66.7,62.4,78,63,43,29.75,29.62,9,2,14,0.00
2012-7-16,96.3,83.8,71.1,72.7,67.4,63.8,78,59,43,29.69,29.51,7,2,11,0.00
2012-7-17,101.2,86.3,75.3,71.2,68.3,65.4,73,57,36,29.57,29.46,7,2,12,0.00
2012-7-18,102.3,88.1,77.0,71.8,68.8,65.5,71,55,36,29.58,29.45,7,2,10,0.00
2012-7-19,101.9,88.0,75.6,72.0,68.2,65.8,71,54,33,29.57,29.43,10,4,17,0.01
2012-7-20,86.6,79.3,72.5,67.4,65.0,60.7,74,62,50,29.67,29.51,10,5,16,0.00
2012-7-21,90.5,77.7,63.8,64.8,57.7,53.7,77,53,31,29.73,29.63,8,2,13,0.00
2012-7-22,94.9,80.7,63.6,64.3,59.8,54.4,71,52,35,29.75,29.63,9,3,13,0.00
2012-7-23,103.5,86.8,71.6,70.5,65.1,58.8,71,51,32,29.72,29.59,9,4,13,0.00
2012-7-24,106.3,95.2,78.5,70.2,66.8,64.0,63,42,29,29.61,29.47,8,4,12,0.00
2012-7-25,104.4,89.9,76.9,70.9,67.2,64.1,68,50,30,29.53,29.36,10,4,18,0.00
2012-7-26,96.3,85.5,74.2,68.7,66.7,64.3,71,54,40,29.49,29.34,10,5,17,0.00
2012-7-27,102.1,84.2,70.9,71.8,63.2,55.8,78,53,32,29.61,29.45,11,4,19,0.00
2012-7-28,90.3,77.9,65.1,61.9,58.1,54.5,68,52,36,29.72,29.61,9,3,14,0.00
2012-7-29,91.0,78.1,63.8,63.3,59.9,53.9,71,55,40,29.73,29.57,8,2,11,0.00
2012-7-30,91.7,79.7,69.1,68.1,64.7,59.9,74,61,45,29.59,29.46,9,3,13,0.00
2012-7-31,100.9,83.8,68.4,70.8,65.5,61.2,78,57,33,29.58,29.45,7,2,11,0.00
2012-8-1,97.7,84.0,71.6,64.8,58.1,47.1,70,46,22,29.55,29.44,7,3,12,0.00
2012-8-2,99.1,80.6,67.5,69.4,61.9,52.2,78,55,37,29.50,29.33,12,4,14,0.01
2012-8-3,90.3,82.2,71.8,73.5,70.7,65.1,78,68,56,29.49,29.42,7,4,9,0.00
2012-8-4,91.2,82.9,75.3,76.1,70.2,67.6,78,65,50,29.57,29.48,9,4,11,0.00
2012-8-5,88.7,79.0,68.9,71.5,64.1,57.9,78,62,37,29.75,29.56,9,3,14,0.00
2012-8-6,91.7,72.9,62.4,62.4,57.7,54.7,76,61,33,29.76,29.69,7,2,11,0.00
2012-8-7,97.7,88.2,74.6,60.3,56.8,53.3,53,37,27,29.65,29.53,6,3,11,0.00
2012-8-8,100.9,85.0,71.4,64.1,59.2,55.3,60,44,29,29.61,29.48,10,3,14,0.00
2012-8-9,94.9,79.8,69.5,63.2,60.9,58.4,67,54,33,29.56,29.36,9,3,13,0.00
2012-8-10,79.9,71.9,67.3,61.5,56.2,50.6,71,58,43,29.59,29.41,11,6,16,0.00
2012-8-11,85.0,70.5,54.6,55.3,48.9,45.5,71,49,30,29.66,29.56,9,3,15,0.00
2012-8-12,85.2,68.2,52.2,55.0,50.5,43.2,72,55,35,29.68,29.56,7,2,11,0.17
2012-8-13,79.0,70.5,61.9,64.0,59.2,51.6,78,67,57,29.62,29.47,11,4,15,0.20
2012-8-14,78.8,70.4,64.2,59.9,57.9,55.8,78,65,48,29.62,29.52,8,3,12,0.00
2012-8-15,88.9,74.4,61.7,63.1,56.6,51.2,78,57,33,29.64,29.53,9,2,13,0.00
2012-8-16,93.8,74.3,63.3,70.7,61.9,54.3,78,66,48,29.59,29.36,13,3,24,0.38
2012-8-17,80.2,69.9,59.6,63.2,55.5,50.3,78,61,41,29.66,29.56,8,3,12,0.01
2012-8-18,81.1,67.2,52.9,56.1,50.9,46.5,78,58,36,29.64,29.51,6,2,12,0.00
2012-8-19,80.8,68.0,58.3,56.0,52.3,49.3,77,59,37,29.59,29.52,10,2,15,0.00
2012-8-20,84.8,67.8,55.2,58.2,52.4,47.5,78,60,34,29.62,29.55,8,2,11,0.01
2012-8-21,86.7,69.4,55.9,59.5,53.3,48.9,77,59,35,29.69,29.59,7,2,11,0.01
2012-8-22,90.3,73.0,55.4,58.2,52.3,47.6,75,52,29,29.71,29.62,9,2,12,0.00
2012-8-23,93.3,75.5,57.5,61.1,54.0,49.4,75,51,29,29.71,29.62,9,2,12,0.00
2012-8-24,96.1,77.6,61.0,60.2,55.9,51.8,73,51,29,29.67,29.57,7,2,13,0.00
2012-8-25,92.6,78.0,61.3,63.4,58.6,52.6,73,54,33,29.69,29.58,10,3,15,0.00
2012-8-26,91.2,78.4,66.6,67.1,63.5,58.0,76,61,45,29.70,29.56,10,4,15,0.30
2012-8-27,86.6,77.5,69.6,71.0,65.7,59.7,78,67,45,29.69,29.59,10,3,16,0.09
2012-8-28,87.6,76.0,62.6,62.1,57.1,53.9,77,55,34,29.73,29.60,10,3,14,0.00
2012-8-29,89.2,75.5,59.8,61.4,57.8,52.3,76,56,38,29.69,29.56,9,2,13,0.00
2012-8-30,93.5,79.2,63.1,62.6,58.5,54.3,72,52,30,29.66,29.56,10,3,14,0.00
2012-8-31,91.0,79.9,72.6,71.3,67.1,62.8,78,65,48,29.71,29.52,18,7,22,0.35
2012-9-1,83.9,75.6,70.9,71.5,67.6,62.4,78,75,63,29.59,29.41,17,7,28,0.93
2012-9-2,84.5,76.4,72.5,73.9,69.1,65.8,78,77,68,29.39,29.34,7,3,13,0.17
2012-9-3,80.0,75.4,71.4,70.9,67.9,64.9,78,76,70,29.50,29.39,7,3,10,0.01
2012-9-4,89.4,78.8,68.9,77.4,68.5,64.9,78,70,54,29.54,29.45,5,1,8,0.00
2012-9-5,81.5,73.7,65.8,72.6,66.1,58.3,78,76,63,29.56,29.40,17,2,23,0.07
2012-9-6,90.5,75.8,65.6,72.9,65.0,58.9,78,69,49,29.57,29.49,10,1,14,0.00
2012-9-7,88.9,73.6,62.8,71.0,63.4,56.4,78,71,53,29.52,29.25,10,3,14,0.99
2012-9-8,73.0,64.7,57.8,64.9,52.8,49.2,78,65,48,29.61,29.42,11,4,18,0.01
2012-9-9,72.5,63.3,56.1,55.9,50.9,48.2,74,64,50,29.75,29.54,9,3,15,0.00
2012-9-10,77.9,64.8,53.8,55.3,50.9,46.8,78,62,43,29.85,29.72,6,1,8,0.00
2012-9-11,80.9,67.3,53.2,51.8,50.4,47.2,78,78,76,29.83,29.71,8,2,11,0.00
2012-9-12,83.6,70.7,56.9,51.1,51.1,51.1,78,78,78,29.85,29.74,7,3,11,0.00
2012-9-13,80.8,69.8,61.3,51.1,51.1,51.1,78,78,78,29.87,29.76,7,2,11,0.00
2012-9-14,71.6,63.6,59.4,51.1,51.1,51.1,78,78,78,29.95,29.85,8,4,14,0.02
2012-9-15,70.9,62.4,53.9,51.1,51.1,51.1,78,78,78,29.95,29.76,8,2,13,0.00
2012-9-16,72.1,64.5,55.7,51.1,51.1,51.1,78,78,78,29.76,29.60,6,1,11,0.00
2012-9-17,70.3,65.8,61.7,56.7,55.9,51.1,78,78,78,29.61,29.37,3,0,7,0.33
2012-9-18,67.5,59.0,47.2,55.9,55.9,55.9,78,78,78,29.71,29.38,13,5,18,0.01
2012-9-19,70.7,56.8,42.1,62.7,56.0,55.9,78,76,78,29.80,29.62,7,3,11,0.00
2012-9-20,75.6,63.3,52.2,60.2,60.0,52.8,0,0,100,29.65,29.56,7,2,10,0.05
2012-9-21,77.9,62.5,48.3,60.2,60.2,60.2,0,0,100,29.63,29.31,12,3,17,0.41
2012-9-22,68.9,58.3,45.8,60.2,60.2,60.2,0,0,100,29.83,29.45,10,3,16,0.01
2012-9-23,66.1,51.7,40.7,60.2,60.2,60.2,0,0,100,29.94,29.83,8,2,13,0.00
2012-9-24,70.0,54.6,36.8,60.2,60.2,60.2,0,0,100,29.90,29.61,6,2,10,0.00
2012-9-25,77.4,63.3,53.1,60.2,60.2,60.2,0,0,100,29.66,29.47,11,4,18,1.63
2012-9-26,74.9,66.6,61.9,60.2,60.2,60.2,0,0,100,29.68,29.54,13,2,21,1.72
2012-9-27,69.3,66.2,64.5,60.2,60.2,60.2,0,0,100,29.75,29.65,3,1,4,0.01
2012-9-28,70.9,61.8,55.5,60.2,60.2,60.2,0,0,100,29.79,29.69,8,3,13,0.05
2012-9-29,81.5,61.0,50.8,60.2,60.2,60.2,0,0,100,29.75,29.59,6,2,11,0.00
2012-9-30,71.6,61.2,53.1,60.2,60.2,60.2,0,0,100,29.59,29.45,7,2,10,0.00
2012-10-1,58.7,56.3,54.1,60.2,60.2,60.2,0,0,100,29.47,29.33,6,4,9,0.15
2012-10-2,58.9,56.0,53.2,60.2,60.2,60.2,0,0,100,29.51,29.34,9,4,12,0.06
2012-10-3,76.0,62.9,55.5,60.2,60.2,60.2,0,0,100,29.71,29.50,12,3,16,0.13
2012-10-4,79.5,66.3,54.5,60.2,60.2,60.2,0,0,100,29.80,29.70,10,3,14,0.01
2012-10-5,57.6,48.4,40.9,60.2,60.2,60.2,0,0,100,29.82,29.71,10,4,13,0.53
2012-10-6,55.4,43.9,35.9,60.2,60.2,60.2,0,0,100,29.87,29.79,7,2,10,0.00
2012-10-7,55.4,45.4,38.9,60.2,60.2,60.2,0,0,100,29.89,29.79,7,2,11,0.00
2012-10-8,60.6,46.7,33.7,60.2,60.2,60.2,0,0,100,29.87,29.71,6,2,9,0.00
2012-10-9,64.3,50.8,38.1,60.2,60.2,60.2,0,0,100,29.74,29.56,9,3,14,0.00
2012-10-10,56.4,48.7,37.5,60.2,60.2,60.2,0,0,100,29.89,29.57,12,4,17,0.00
2012-10-11,64.2,49.4,34.7,60.2,60.2,60.2,0,0,100,29.90,29.77,7,2,12,0.00
2012-10-12,64.2,55.5,48.6,60.2,60.2,60.2,0,0,100,29.98,29.82,8,2,11,0.00
2012-10-13,74.9,62.0,47.4,60.2,60.2,60.2,0,0,100,29.87,29.46,10,4,17,0.00
2012-10-14,73.2,66.1,53.8,60.2,60.2,60.2,0,0,100,29.54,29.29,19,8,30,0.15
2012-10-15,67.9,55.7,45.3,60.2,60.2,60.2,0,0,100,29.63,29.52,6,2,10,0.00
2012-10-16,76.0,60.4,43.4,60.2,60.2,60.2,0,0,100,29.60,29.30,11,5,17,0.00
2012-10-17,72.3,63.4,54.1,60.2,60.2,60.2,0,0,100,29.33,28.97,14,6,20,0.89
2012-10-18,62.6,55.3,47.8,60.2,60.2,60.2,0,0,100,29.27,29.15,15,7,21,0.01
2012-10-19,55.0,50.9,48.1,60.2,60.2,60.2,0,0,100,29.40,29.16,12,6,18,0.05
2012-10-20,58.2,51.2,46.2,60.2,60.2,60.2,0,0,100,29.57,29.39,6,2,8,0.00
2012-10-21,75.6,60.8,44.8,60.2,60.2,60.2,0,0,100,29.62,29.54,10,5,13,0.00
2012-10-22,77.0,69.2,62.4,60.2,60.2,60.2,0,0,100,29.62,29.55,12,6,16,0.04
2012-10-23,69.3,66.4,61.7,60.6,60.3,58.8,78,25,74,29.62,29.52,11,4,14,0.41
2012-10-24,79.5,68.7,57.6,60.6,60.6,60.6,78,78,78,29.64,29.53,9,4,17,0.00
2012-10-25,79.0,65.3,45.5,60.6,60.6,60.6,78,78,78,29.72,29.44,12,6,21,0.14
2012-10-26,48.3,43.8,40.2,60.6,60.6,60.6,78,78,78,29.92,29.71,14,8,19,0.24
2012-10-27,51.5,42.8,34.7,60.6,60.6,60.6,78,78,78,29.88,29.79,12,7,17,0.00
2012-10-28,50.9,42.2,36.8,60.6,60.6,60.6,78,78,78,29.85,29.79,11,6,16,0.00
2012-10-29,55.2,43.7,34.4,60.6,60.6,60.6,78,78,78,29.89,29.67,14,5,19,0.00
2012-10-30,55.5,44.7,38.1,60.6,60.6,60.6,78,78,78,29.67,29.43,12,5,24,0.00
2012-10-31,53.6,41.5,32.6,60.6,60.6,60.6,78,78,78,29.57,29.49,8,2,14,0.00
2012-11-1,59.8,46.0,33.7,60.6,60.6,60.6,78,78,78,29.64,29.49,9,2,13,0.00
2012-11-2,56.1,46.1,37.0,60.6,60.6,60.6,78,78,78,29.70,29.49,6,2,10,0.00
2012-11-3,48.8,44.2,37.9,60.6,60.6,60.6,78,78,78,29.79,29.65,10,5,13,0.00
2012-11-4,53.6,40.4,31.4,60.6,60.6,60.6,78,78,78,29.86,29.77,6,2,9,0.00
2012-11-5,44.1,40.6,38.2,60.6,60.6,60.6,78,78,78,29.80,29.69,8,2,11,0.00
2012-11-6,49.7,43.3,39.8,60.6,60.6,60.6,78,78,78,29.70,29.53,5,1,6,0.08
2012-11-7,50.1,44.4,40.2,60.6,60.6,60.6,78,78,78,29.80,29.52,11,3,14,0.05
2012-11-8,54.8,44.2,32.2,60.6,60.6,60.6,78,78,78,29.88,29.72,6,2,10,0.00
2012-11-9,68.4,54.0,37.7,60.6,60.6,60.6,78,78,78,29.75,29.59,11,6,17,0.00
2012-11-10,71.6,62.8,50.1,60.6,60.6,60.6,78,78,78,29.70,29.60,14,7,21,0.00
2012-11-11,67.2,60.4,50.4,60.6,60.6,60.6,78,78,78,29.67,29.47,19,9,28,0.54
2012-11-12,50.4,38.1,30.1,60.6,60.6,60.6,78,78,78,30.06,29.60,13,5,18,0.33
2012-11-13,46.9,35.5,27.1,60.6,60.6,60.6,78,78,78,30.16,30.05,6,1,9,0.00
2012-11-14,45.3,34.3,27.8,60.6,60.6,60.6,78,78,78,30.14,29.98,7,1,9,0.00
2012-11-15,49.7,35.5,25.0,60.6,60.6,60.6,78,78,78,30.03,29.94,4,0,5,0.00
2012-11-16,54.5,39.0,27.1,60.6,60.6,60.6,78,78,78,30.09,30.00,4,1,8,0.00
2012-11-17,56.9,40.0,26.8,60.6,60.6,60.6,78,78,78,30.15,30.02,9,2,11,0.00
2012-11-18,59.8,42.4,28.5,60.6,60.6,60.6,78,78,78,30.03,29.93,9,2,13,0.00
2012-11-19,61.0,46.4,31.9,60.6,60.6,60.6,78,78,78,29.95,29.74,6,1,9,0.00
2012-11-20,63.3,54.3,43.2,60.6,60.6,60.6,78,78,78,29.78,29.67,6,1,8,0.00
2012-11-21,63.1,49.0,39.3,60.6,60.6,60.6,78,78,78,29.90,29.77,4,1,5,0.00
2012-11-22,63.5,51.7,38.2,60.6,60.6,60.6,78,78,78,29.79,29.59,12,6,17,0.17
2012-11-23,54.6,41.2,28.4,60.6,60.6,60.6,78,78,78,29.93,29.63,13,7,21,0.00
2012-11-24,36.7,30.0,23.4,60.6,60.6,60.6,78,78,78,29.95,29.68,8,3,11,0.00
2012-11-25,53.8,40.4,28.7,60.6,60.6,60.6,78,78,78,29.69,29.53,10,4,14,0.00
2012-11-26,45.8,37.5,30.7,60.6,60.6,60.6,78,78,78,29.96,29.67,15,6,18,0.00
2012-11-27,41.6,31.2,22.7,60.6,60.6,60.6,78,78,78,30.06,29.94,9,3,12,0.00
2012-11-28,48.8,33.1,20.6,60.6,60.6,60.6,78,78,78,30.06,29.95,6,1,8,0.00
2012-11-29,54.1,41.3,27.7,60.6,60.6,60.6,78,78,78,29.96,29.75,9,5,17,0.00
2012-11-30,61.2,51.0,43.7,60.6,60.6,60.6,78,78,78,29.78,29.69,9,5,14,0.00
2012-12-1,65.8,54.7,40.0,60.6,60.6,60.6,78,78,78,29.77,29.61,12,6,20,0.00
2012-12-2,67.2,61.9,56.1,60.6,60.6,60.6,78,78,78,29.67,29.58,15,8,22,0.01
2012-12-3,69.1,64.3,58.9,60.6,60.6,60.6,78,78,78,29.67,29.56,18,8,26,0.00
2012-12-4,63.3,52.7,38.1,60.6,60.6,60.6,78,78,78,29.90,29.56,11,5,15,0.01
2012-12-5,54.3,42.6,32.9,60.6,60.6,60.6,78,78,78,29.99,29.78,6,2,9,0.01
2012-12-6,51.1,42.2,32.4,60.6,60.6,60.6,78,78,78,29.79,29.55,8,3,10,0.00
2012-12-7,57.3,50.4,44.4,60.6,60.6,60.6,78,78,78,29.57,29.41,9,2,11,0.02
2012-12-8,50.1,47.2,43.4,60.6,60.6,60.6,78,78,78,29.62,29.44,9,3,12,0.00
2012-12-9,54.6,48.5,41.9,60.6,60.6,60.6,78,78,78,29.58,29.34,12,5,17,0.05
2012-12-10,41.9,32.8,27.3,60.6,60.6,60.6,78,78,78,29.68,29.43,12,6,14,0.00
2012-12-11,39.5,29.1,19.7,60.6,60.6,60.6,78,78,78,29.86,29.67,9,2,13,0.00
2012-12-12,49.0,33.1,20.8,60.6,60.6,60.6,78,78,78,29.98,29.85,7,2,11,0.00
2012-12-13,52.0,37.9,23.8,60.6,60.6,60.6,78,78,78,29.98,29.82,10,4,14,0.00
2012-12-14,55.5,41.3,26.6,60.6,60.6,60.6,78,78,78,29.87,29.66,8,3,12,0.00
2012-12-15,57.1,50.6,42.3,60.6,60.6,60.6,78,78,78,29.66,29.27,19,10,24,0.24
2012-12-16,54.6,46.7,36.1,60.6,47.6,30.6,78,76,69,29.37,29.28,9,2,11,0.00
2012-12-17,42.8,40.2,37.5,35.4,34.7,32.0,78,78,78,29.41,29.24,8,3,10,0.01
2012-12-18,53.8,43.2,31.9,35.0,35.0,35.0,78,78,78,29.52,29.29,13,7,20,0.00
2012-12-19,52.5,40.3,29.6,35.0,35.0,35.0,78,78,78,29.64,29.21,18,6,21,0.00
2012-12-20,57.5,42.2,29.1,35.0,35.0,35.0,78,78,78,29.48,28.84,26,15,38,0.91
2012-12-21,37.7,29.7,24.5,35.0,35.0,35.0,78,78,78,29.89,29.47,17,10,26,0.00
2012-12-22,41.9,30.2,18.0,35.0,35.0,35.0,78,78,78,29.92,29.58,10,3,11,0.00
2012-12-23,54.5,43.1,36.1,35.0,35.0,35.0,78,78,78,29.58,29.45,8,3,11,0.00
2012-12-24,41.2,34.6,26.1,35.0,35.0,35.0,78,78,78,29.75,29.39,10,5,14,0.00
2012-12-25,35.2,30.9,25.4,35.0,35.0,35.0,78,78,78,29.85,29.51,14,7,22,0.00
2012-12-26,33.7,31.1,28.7,35.0,35.0,35.0,78,78,78,29.75,29.38,20,12,27,0.01
2012-12-27,32.8,29.4,27.8,35.0,35.0,35.0,78,78,78,29.82,29.71,8,3,9,0.00
2012-12-28,34.7,31.4,27.7,35.0,35.0,35.0,78,78,78,29.71,29.47,10,4,12,0.00
2012-12-29,31.0,25.6,14.4,35.0,35.0,35.0,78,78,78,29.96,29.52,10,4,14,0.00
2012-12-30,34.9,22.7,6.0,35.0,35.0,35.0,78,78,78,30.07,29.85,8,3,11,0.00
2012-12-31,36.7,33.6,31.4,35.0,35.0,35.0,78,78,78,29.86,29.67,10,4,13,0.06
2013-1-1,32.4,24.6,15.0,35.0,35.0,35.0,78,78,78,29.86,29.68,7,0,9,0.00